createdAt,value
2023-01-08T00:01:06.733Z,100793.66
2023-01-08T00:03:34.996Z,100782.88
2023-01-08T00:06:03.947Z,100782.88
2023-01-08T00:08:32.915Z,100778.16
2023-01-08T00:11:01.450Z,100782.53
2023-01-08T00:13:30.846Z,100773.63
2023-01-08T00:16:03.314Z,100773.63
2023-01-08T00:18:31.389Z,100766.50
2023-01-08T00:20:59.883Z,100739.69
2023-01-08T00:23:27.968Z,100765.34
2023-01-08T00:25:55.940Z,100752.84
2023-01-08T00:28:24.336Z,100749.16
2023-01-08T00:30:53.734Z,100733.13
2023-01-08T00:33:21.671Z,100726.69
2023-01-08T00:35:49.578Z,100730.25
2023-01-08T00:38:17.652Z,100719.28
2023-01-08T00:40:45.663Z,100718.31
2023-01-08T00:43:13.562Z,100713.91
2023-01-08T00:45:41.603Z,100692.22
2023-01-08T00:48:10.939Z,100713.59
2023-01-08T00:50:38.918Z,100706.53
2023-01-08T00:53:06.883Z,100708.06
2023-01-08T00:55:34.913Z,100707.91
2023-01-08T00:58:02.915Z,100703.34
2023-01-08T01:00:30.894Z,100696.13
2023-01-08T01:02:58.865Z,100697.25
2023-01-08T01:05:28.288Z,100693.25
2023-01-08T01:07:56.991Z,100687.16
2023-01-08T01:10:25.558Z,100682.75
2023-01-08T01:12:53.466Z,100688.00
2023-01-08T01:15:21.655Z,100679.91
2023-01-08T01:17:49.664Z,100678.88
2023-01-08T01:20:18.469Z,100674.34
2023-01-08T01:22:47.830Z,100657.63
2023-01-08T01:25:15.977Z,100672.50
2023-01-08T01:27:44.155Z,100675.38
2023-01-08T01:30:12.987Z,100652.06
2023-01-08T01:32:40.962Z,100638.63
2023-01-08T01:35:09.646Z,100641.91
2023-01-08T01:37:37.780Z,100635.94
2023-01-08T01:40:08.302Z,100634.69
2023-01-08T01:42:43.949Z,100636.16
2023-01-08T01:45:18.657Z,100636.47
2023-01-08T01:47:48.657Z,100634.63
2023-01-08T01:50:20.163Z,100627.50
2023-01-08T01:52:54.981Z,100625.50
2023-01-08T01:55:24.878Z,100627.50
2023-01-08T01:58:00.125Z,100617.00
2023-01-08T02:00:29.669Z,100611.78
2023-01-08T02:02:58.199Z,100609.06
2023-01-08T02:05:31.279Z,100615.28
2023-01-08T02:08:07.821Z,100612.31
2023-01-08T02:10:43.736Z,100611.31
2023-01-08T02:13:15.875Z,100577.72
2023-01-08T02:15:49.411Z,100599.25
2023-01-08T02:18:20.987Z,100603.13
2023-01-08T02:20:55.442Z,100596.00
2023-01-08T02:23:31.811Z,100602.13
2023-01-08T02:26:11.903Z,100596.41
2023-01-08T02:28:44.013Z,100593.41
2023-01-08T02:31:14.191Z,100578.81
2023-01-08T02:33:42.360Z,100586.88
2023-01-08T02:36:27.437Z,100579.63
2023-01-08T02:39:09.994Z,100581.63
2023-01-08T02:41:48.977Z,100582.63
2023-01-08T02:44:23.273Z,100570.97
2023-01-08T02:46:55.909Z,100570.97
2023-01-08T02:49:29.929Z,100569.13
2023-01-08T02:51:59.118Z,100570.13
2023-01-08T02:54:32.574Z,100536.41
2023-01-08T02:57:07.085Z,100558.19
2023-01-08T02:59:36.507Z,100563.59
2023-01-08T03:02:05.375Z,100552.25
2023-01-08T03:04:39.081Z,100545.97
2023-01-08T03:07:07.127Z,100542.28
2023-01-08T03:09:36.078Z,100549.25
2023-01-08T03:12:10.965Z,100544.84
2023-01-08T03:14:45.032Z,100559.63
2023-01-08T03:17:19.521Z,100551.69
2023-01-08T03:19:54.676Z,100555.91
2023-01-08T03:22:24.630Z,100539.03
2023-01-08T03:24:55.631Z,100534.50
2023-01-08T03:27:29.874Z,100538.91
2023-01-08T03:30:00.519Z,100533.19
2023-01-08T03:32:31.141Z,100528.25
2023-01-08T03:35:03.238Z,100518.41
2023-01-08T03:37:35.394Z,100519.38
2023-01-08T03:40:08.343Z,100515.16
2023-01-08T03:42:37.730Z,100512.44
2023-01-08T03:45:06.431Z,100516.16
2023-01-08T03:47:37.071Z,100505.66
2023-01-08T03:50:09.666Z,100505.38
2023-01-08T03:52:37.786Z,100507.34
2023-01-08T03:55:06.448Z,100500.09
2023-01-08T03:57:34.443Z,100505.50
2023-01-08T04:00:03.862Z,100499.13
2023-01-08T04:02:33.340Z,100486.59
2023-01-08T04:05:01.444Z,100446.84
2023-01-08T04:07:29.459Z,100505.38
2023-01-08T04:09:57.351Z,100499.41
2023-01-08T04:12:25.463Z,100501.13
2023-01-08T04:14:53.343Z,100492.88
2023-01-08T04:17:22.671Z,100492.69
2023-01-08T04:19:50.721Z,100490.84
2023-01-08T04:22:18.713Z,100489.88
2023-01-08T04:24:46.634Z,100483.16
2023-01-08T04:27:14.659Z,100482.84
2023-01-08T04:29:42.649Z,100481.31
2023-01-08T04:32:10.667Z,100479.75
2023-01-08T04:34:39.985Z,100487.00
2023-01-08T04:37:07.976Z,100472.97
2023-01-08T04:39:35.877Z,100476.38
2023-01-08T04:42:03.890Z,100469.97
2023-01-08T04:44:32.109Z,100469.97
2023-01-08T04:47:00.138Z,100468.56
2023-01-08T04:49:28.147Z,100458.47
2023-01-08T04:51:57.436Z,100459.31
2023-01-08T04:54:25.481Z,100451.22
2023-01-08T04:56:53.807Z,100431.41
2023-01-08T04:59:21.823Z,100447.63
2023-01-08T05:01:50.170Z,100434.81
2023-01-08T05:04:18.284Z,100430.66
2023-01-08T05:06:46.200Z,100429.50
2023-01-08T05:09:15.642Z,100431.72
2023-01-08T05:11:43.741Z,100432.41
2023-01-08T05:14:11.858Z,100429.09
2023-01-08T05:16:39.890Z,100417.28
2023-01-08T05:19:07.943Z,100414.59
2023-01-08T05:21:35.998Z,100412.72
2023-01-08T05:24:04.088Z,100408.84
2023-01-08T05:26:33.367Z,100407.69
2023-01-08T05:29:01.414Z,100404.31
2023-01-08T05:31:29.477Z,100398.75
2023-01-08T05:33:59.170Z,100399.97
2023-01-08T05:36:27.316Z,100395.41
2023-01-08T05:38:55.279Z,100388.47
2023-01-08T05:41:23.283Z,100392.19
2023-01-08T05:43:52.734Z,100391.34
2023-01-08T05:46:20.828Z,100394.19
2023-01-08T05:48:48.807Z,100390.66
2023-01-08T05:51:16.816Z,100379.16
2023-01-08T05:53:44.773Z,100384.88
2023-01-08T05:56:13.504Z,100381.47
2023-01-08T05:58:41.768Z,100375.19
2023-01-08T06:01:13.587Z,100380.03
2023-01-08T06:03:41.629Z,100379.66
2023-01-08T06:06:12.221Z,100370.88
2023-01-08T06:08:40.542Z,100366.94
2023-01-08T06:11:09.976Z,100360.88
2023-01-08T06:13:38.871Z,100361.00
2023-01-08T06:16:07.334Z,100358.47
2023-01-08T06:18:37.260Z,100363.31
2023-01-08T06:21:05.833Z,100346.53
2023-01-08T06:23:33.884Z,100365.03
2023-01-08T06:26:04.195Z,100360.16
2023-01-08T06:28:32.749Z,100353.28
2023-01-08T06:31:00.880Z,100350.97
2023-01-08T06:33:29.395Z,100338.94
2023-01-08T06:36:01.203Z,100338.56
2023-01-08T06:38:32.109Z,100342.63
2023-01-08T06:41:00.052Z,100328.13
2023-01-08T06:43:28.025Z,100333.34
2023-01-08T06:45:58.400Z,100315.94
2023-01-08T06:48:27.299Z,100327.97
2023-01-08T06:50:56.298Z,100325.94
2023-01-08T06:53:25.669Z,100322.72
2023-01-08T06:55:57.045Z,100316.09
2023-01-08T06:58:25.752Z,100323.53
2023-01-08T07:00:53.979Z,100318.25
2023-01-08T07:03:22.011Z,100314.03
2023-01-08T07:05:50.977Z,100318.56
2023-01-08T07:08:20.271Z,100323.84
2023-01-08T07:10:50.213Z,100322.81
2023-01-08T07:13:18.148Z,100321.97
2023-01-08T07:15:46.226Z,100315.25
2023-01-08T07:18:14.403Z,100313.91
2023-01-08T07:20:42.415Z,100299.25
2023-01-08T07:23:12.290Z,100305.06
2023-01-08T07:25:40.579Z,100295.94
2023-01-08T07:28:12.693Z,100301.00
2023-01-08T07:30:40.744Z,100280.53
2023-01-08T07:33:08.848Z,100294.75
2023-01-08T07:35:38.351Z,100288.72
2023-01-08T07:38:06.796Z,100286.88
2023-01-08T07:40:34.949Z,100292.13
2023-01-08T07:43:05.144Z,100284.69
2023-01-08T07:45:34.653Z,100296.06
2023-01-08T07:48:02.612Z,100289.94
2023-01-08T07:50:30.637Z,100260.16
2023-01-08T07:52:59.736Z,100297.19
2023-01-08T07:55:28.803Z,100291.13
2023-01-08T07:57:56.729Z,100296.66
2023-01-08T08:00:24.800Z,100296.97
2023-01-08T08:02:54.215Z,100305.56
2023-01-08T08:05:22.174Z,100300.47
2023-01-08T08:07:50.105Z,100307.75
2023-01-08T08:10:18.309Z,100305.88
2023-01-08T08:12:46.663Z,100305.06
2023-01-08T08:15:14.803Z,100301.63
2023-01-08T08:17:46.439Z,100299.78
2023-01-08T08:20:16.672Z,100299.78
2023-01-08T08:22:45.315Z,100289.16
2023-01-08T08:25:15.215Z,100286.59
2023-01-08T08:27:43.372Z,100289.47
2023-01-08T08:30:12.965Z,100291.50
2023-01-08T08:32:40.955Z,100294.03
2023-01-08T08:35:09.411Z,100294.03
2023-01-08T08:37:38.785Z,100294.03
2023-01-08T08:40:08.069Z,100280.16
2023-01-08T08:42:36.262Z,100279.84
2023-01-08T08:45:04.437Z,100275.63
2023-01-08T08:47:32.469Z,100274.75
2023-01-08T08:50:00.470Z,100275.75
2023-01-08T08:52:28.500Z,100276.47
2023-01-08T08:54:57.867Z,100286.56
2023-01-08T08:57:26.474Z,100292.28
2023-01-08T08:59:54.841Z,100295.69
2023-01-08T09:02:22.942Z,100288.44
2023-01-08T09:04:51.070Z,100297.69
2023-01-08T09:07:18.974Z,100288.38
2023-01-08T09:09:47.009Z,100288.88
2023-01-08T09:12:16.434Z,100280.66
2023-01-08T09:14:44.333Z,100282.50
2023-01-08T09:17:12.415Z,100284.19
2023-01-08T09:19:40.465Z,100282.19
2023-01-08T09:22:08.502Z,100278.44
2023-01-08T09:24:36.507Z,100270.03
2023-01-08T09:27:04.694Z,100276.13
2023-01-08T09:29:34.004Z,100274.13
2023-01-08T09:32:02.178Z,100259.47
2023-01-08T09:34:31.682Z,100271.09
2023-01-08T09:36:59.759Z,100265.22
2023-01-08T09:39:27.775Z,100266.59
2023-01-08T09:41:57.830Z,100272.22
2023-01-08T09:44:31.350Z,100263.09
2023-01-08T09:47:01.379Z,100270.03
2023-01-08T09:49:38.750Z,100263.47
2023-01-08T09:52:06.828Z,100265.19
2023-01-08T09:54:34.825Z,100255.06
2023-01-08T09:57:02.834Z,100251.88
2023-01-08T09:59:31.440Z,100257.13
2023-01-08T10:02:01.073Z,100242.28
2023-01-08T10:04:31.098Z,100237.03
2023-01-08T10:07:03.452Z,100221.69
2023-01-08T10:09:33.732Z,100211.34
2023-01-08T10:12:04.961Z,100211.03
2023-01-08T10:14:37.585Z,100208.50
2023-01-08T10:17:20.521Z,100221.84
2023-01-08T10:19:48.561Z,100211.22
2023-01-08T10:22:21.053Z,100215.75
2023-01-08T10:24:49.176Z,100206.81
2023-01-08T10:27:18.751Z,100202.06
2023-01-08T10:29:47.118Z,100181.28
2023-01-08T10:32:18.774Z,100194.47
2023-01-08T10:34:50.353Z,100157.72
2023-01-08T10:37:25.439Z,100193.25
2023-01-08T10:39:55.220Z,100193.91
2023-01-08T10:42:24.462Z,100187.97
2023-01-08T10:44:57.352Z,100197.97
2023-01-08T10:47:29.252Z,100193.44
2023-01-08T10:49:59.302Z,100188.88
2023-01-08T10:52:31.758Z,100185.88
2023-01-08T10:55:13.529Z,100180.09
2023-01-08T10:57:57.221Z,100153.03
2023-01-08T11:00:30.368Z,100171.34
2023-01-08T11:03:02.567Z,100172.72
2023-01-08T11:05:33.430Z,100172.72
2023-01-08T11:08:03.754Z,100167.13
2023-01-08T11:10:31.723Z,100147.69
2023-01-08T11:13:04.233Z,100163.78
2023-01-08T11:15:35.595Z,100165.31
2023-01-08T11:18:29.245Z,100160.75
2023-01-08T11:21:10.396Z,100164.47
2023-01-08T11:23:38.357Z,100164.63
2023-01-08T11:26:12.161Z,100166.16
2023-01-08T11:28:50.533Z,100173.75
2023-01-08T11:31:24.556Z,100172.06
2023-01-08T11:33:59.496Z,100181.69
2023-01-08T11:36:33.945Z,100168.38
2023-01-08T11:39:02.651Z,100168.19
2023-01-08T11:41:46.841Z,100158.06
2023-01-08T11:44:26.783Z,100149.44
2023-01-08T11:47:04.045Z,100151.97
2023-01-08T11:49:48.934Z,100141.84
2023-01-08T11:52:34.823Z,100133.91
2023-01-08T11:55:17.049Z,100141.16
2023-01-08T11:57:59.820Z,100136.94
2023-01-08T12:00:55.375Z,100135.59
2023-01-08T12:03:31.817Z,100143.19
2023-01-08T12:06:10.632Z,100125.63
2023-01-08T12:08:48.546Z,100131.50
2023-01-08T12:11:25.078Z,100126.94
2023-01-08T12:14:24.799Z,100129.16
2023-01-08T12:17:12.812Z,100126.59
2023-01-08T12:19:59.607Z,100127.13
2023-01-08T12:22:39.886Z,100121.53
2023-01-08T12:25:23.737Z,100115.78
2023-01-08T12:28:03.165Z,100112.41
2023-01-08T12:30:48.099Z,100108.53
2023-01-08T12:33:24.191Z,100104.00
2023-01-08T12:35:55.560Z,100110.75
2023-01-08T12:38:31.310Z,100103.84
2023-01-08T12:41:02.385Z,100100.13
2023-01-08T12:43:33.114Z,100105.34
2023-01-08T12:46:03.674Z,100100.47
2023-01-08T12:48:35.315Z,100086.47
2023-01-08T12:51:09.221Z,100088.84
2023-01-08T12:53:50.753Z,100102.16
2023-01-08T12:56:26.080Z,100090.50
2023-01-08T12:59:15.626Z,100092.88
2023-01-08T13:01:50.594Z,100088.31
2023-01-08T13:04:19.206Z,100082.94
2023-01-08T13:07:04.386Z,100084.63
2023-01-08T13:09:34.216Z,100079.22
2023-01-08T13:12:02.282Z,100082.94
2023-01-08T13:14:40.718Z,100076.53
2023-01-08T13:17:19.412Z,100072.47
2023-01-08T13:19:54.784Z,100070.59
2023-01-08T13:22:28.907Z,100052.53
2023-01-08T13:25:32.675Z,100058.28
2023-01-08T13:28:01.990Z,100042.72
2023-01-08T13:30:42.358Z,100047.81
2023-01-08T13:33:41.323Z,100050.84
2023-01-08T13:36:24.528Z,100053.53
2023-01-08T13:39:21.234Z,100024.31
2023-01-08T13:42:02.375Z,100042.56
2023-01-08T13:44:34.255Z,100048.31
2023-01-08T13:47:05.516Z,100041.88
2023-01-08T13:49:42.159Z,100047.47
2023-01-08T13:52:29.026Z,100048.13
2023-01-08T13:54:57.423Z,100058.44
2023-01-08T13:57:26.939Z,100074.47
2023-01-08T13:59:57.439Z,100066.69
2023-01-08T14:02:30.109Z,100073.97
2023-01-08T14:04:59.554Z,100062.31
2023-01-08T14:07:28.346Z,100063.34
2023-01-08T14:10:08.426Z,100066.72
2023-01-08T14:12:37.972Z,100067.91
2023-01-08T14:15:11.308Z,100070.78
2023-01-08T14:17:39.583Z,100068.41
2023-01-08T14:20:12.775Z,100065.53
2023-01-08T14:22:43.218Z,100066.72
2023-01-08T14:25:18.304Z,100062.50
2023-01-08T14:27:56.590Z,100063.34
2023-01-08T14:30:24.717Z,100064.03
2023-01-08T14:32:53.182Z,100067.38
2023-01-08T14:35:27.743Z,100065.88
2023-01-08T14:37:56.266Z,100060.31
2023-01-08T14:40:34.209Z,100062.31
2023-01-08T14:43:10.907Z,100057.44
2023-01-08T14:45:40.375Z,100052.88
2023-01-08T14:48:18.004Z,100037.31
2023-01-08T14:51:00.525Z,100040.88
2023-01-08T14:53:32.905Z,100043.41
2023-01-08T14:56:02.571Z,100039.84
2023-01-08T14:58:38.309Z,100011.16
2023-01-08T15:01:10.293Z,100035.47
2023-01-08T15:03:40.379Z,100034.81
2023-01-08T15:06:11.381Z,100028.03
2023-01-08T15:08:41.178Z,100024.16
2023-01-08T15:11:22.071Z,100026.84
2023-01-08T15:13:53.247Z,100034.81
2023-01-08T15:16:29.744Z,99965.56
2023-01-08T15:19:04.087Z,100028.22
2023-01-08T15:21:32.454Z,100021.13
2023-01-08T15:24:02.551Z,100021.78
2023-01-08T15:26:30.672Z,100021.97
2023-01-08T15:29:02.510Z,100014.34
2023-01-08T15:31:32.988Z,100008.94
2023-01-08T15:34:01.555Z,100007.78
2023-01-08T15:36:29.532Z,100012.50
2023-01-08T15:38:57.514Z,100010.63
2023-01-08T15:41:39.517Z,100009.44
2023-01-08T15:44:09.832Z,100003.19
2023-01-08T15:46:37.787Z,99999.16
2023-01-08T15:49:05.723Z,100000.50
2023-01-08T15:51:35.554Z,99994.25
2023-01-08T15:54:03.835Z,99998.81
2023-01-08T15:56:31.953Z,99986.31
2023-01-08T15:58:59.861Z,99997.13
2023-01-08T16:01:30.029Z,99993.56
2023-01-08T16:03:58.016Z,99990.88
2023-01-08T16:06:26.068Z,99996.13
2023-01-08T16:08:57.663Z,99992.72
2023-01-08T16:11:25.732Z,99987.31
2023-01-08T16:13:53.891Z,99990.19
2023-01-08T16:16:22.334Z,99980.25
2023-01-08T16:18:52.519Z,99984.59
2023-01-08T16:21:20.462Z,99978.38
2023-01-08T16:23:48.342Z,99986.31
2023-01-08T16:26:17.311Z,99980.06
2023-01-08T16:28:45.294Z,99981.25
2023-01-08T16:31:13.460Z,99973.97
2023-01-08T16:33:41.436Z,99983.09
2023-01-08T16:36:12.457Z,99969.59
2023-01-08T16:38:40.510Z,99975.00
2023-01-08T16:41:08.414Z,99973.13
2023-01-08T16:43:41.160Z,99974.66
2023-01-08T16:46:14.017Z,99972.13
2023-01-08T16:48:42.406Z,99971.28
2023-01-08T16:51:12.104Z,99972.97
2023-01-08T16:53:40.733Z,99969.44
2023-01-08T16:56:09.600Z,99971.28
2023-01-08T16:58:38.102Z,99971.28
2023-01-08T17:01:10.332Z,99967.56
2023-01-08T17:03:39.136Z,99963.34
2023-01-08T17:06:07.784Z,99962.31
2023-01-08T17:08:40.191Z,99954.22
2023-01-08T17:11:12.293Z,99952.53
2023-01-08T17:13:40.843Z,99953.38
2023-01-08T17:16:10.676Z,99945.44
2023-01-08T17:18:38.786Z,99956.25
2023-01-08T17:21:07.049Z,99944.59
2023-01-08T17:23:35.411Z,99922.00
2023-01-08T17:26:09.459Z,99938.53
2023-01-08T17:28:38.298Z,99943.06
2023-01-08T17:31:08.266Z,99933.31
2023-01-08T17:33:37.735Z,99943.59
2023-01-08T17:36:11.800Z,99917.78
2023-01-08T17:38:40.149Z,99923.16
2023-01-08T17:41:09.667Z,99917.78
2023-01-08T17:43:38.658Z,99916.56
2023-01-08T17:46:08.816Z,99888.72
2023-01-08T17:48:36.850Z,99901.19
2023-01-08T17:51:09.468Z,99902.53
2023-01-08T17:53:37.749Z,99912.31
2023-01-08T17:56:06.247Z,99903.19
2023-01-08T17:58:35.622Z,99903.69
2023-01-08T18:01:03.636Z,99901.88
2023-01-08T18:03:31.555Z,99890.03
2023-01-08T18:05:59.559Z,99895.75
2023-01-08T18:08:27.432Z,99895.59
2023-01-08T18:10:55.445Z,99885.44
2023-01-08T18:13:23.401Z,99892.53
2023-01-08T18:15:52.757Z,99882.38
2023-01-08T18:18:20.785Z,99877.97
2023-01-08T18:20:48.736Z,99870.72
2023-01-08T18:23:16.734Z,99866.34
2023-01-08T18:25:44.783Z,99862.63
2023-01-08T18:28:12.737Z,99864.31
2023-01-08T18:30:42.075Z,99861.25
2023-01-08T18:33:11.417Z,99853.97
2023-01-08T18:35:40.049Z,99854.66
2023-01-08T18:38:09.800Z,99857.38
2023-01-08T18:40:37.917Z,99824.66
2023-01-08T18:43:05.823Z,99848.22
2023-01-08T18:45:35.433Z,99848.06
2023-01-08T18:48:03.691Z,99846.00
2023-01-08T18:50:32.983Z,99843.31
2023-01-08T18:53:03.803Z,99833.50
2023-01-08T18:55:31.923Z,99842.47
2023-01-08T18:57:59.893Z,99835.00
2023-01-08T19:00:28.786Z,99834.66
2023-01-08T19:02:57.169Z,99837.34
2023-01-08T19:05:25.692Z,99823.22
2023-01-08T19:07:55.191Z,99840.72
2023-01-08T19:10:23.153Z,99837.19
2023-01-08T19:12:51.561Z,99837.84
2023-01-08T19:15:19.687Z,99836.16
2023-01-08T19:17:47.564Z,99833.66
2023-01-08T19:20:15.533Z,99836.50
2023-01-08T19:22:43.458Z,99827.38
2023-01-08T19:25:14.959Z,99828.25
2023-01-08T19:27:42.857Z,99825.53
2023-01-08T19:30:11.981Z,99818.28
2023-01-08T19:32:40.159Z,99812.66
2023-01-08T19:35:08.431Z,99815.56
2023-01-08T19:37:36.484Z,99815.91
2023-01-08T19:40:06.266Z,99814.22
2023-01-08T19:42:53.410Z,99816.06
2023-01-08T19:45:21.427Z,99813.72
2023-01-08T19:47:49.776Z,99822.03
2023-01-08T19:50:19.519Z,99818.47
2023-01-08T19:52:47.605Z,99806.34
2023-01-08T19:55:17.414Z,99787.31
2023-01-08T19:57:46.918Z,99802.44
2023-01-08T20:00:15.966Z,99801.41
2023-01-08T20:02:44.131Z,99798.69
2023-01-08T20:05:12.556Z,99798.03
2023-01-08T20:07:40.461Z,99799.72
2023-01-08T20:10:11.172Z,99798.03
2023-01-08T20:12:39.533Z,99791.31
2023-01-08T20:15:10.490Z,99797.56
2023-01-08T20:17:42.596Z,99791.47
2023-01-08T20:20:11.909Z,99789.81
2023-01-08T20:22:39.823Z,99794.19
2023-01-08T20:25:08.583Z,99786.91
2023-01-08T20:27:36.623Z,99789.81
2023-01-08T20:30:06.897Z,99784.56
2023-01-08T20:32:36.222Z,99782.91
2023-01-08T20:35:04.614Z,99779.34
2023-01-08T20:37:33.422Z,99778.50
2023-01-08T20:40:01.678Z,99759.63
2023-01-08T20:42:34.003Z,99773.59
2023-01-08T20:45:02.735Z,99769.84
2023-01-08T20:47:31.420Z,99767.63
2023-01-08T20:50:03.348Z,99771.50
2023-01-08T20:52:35.232Z,99774.19
2023-01-08T20:55:03.179Z,99762.34
2023-01-08T20:57:31.129Z,99760.69
2023-01-08T20:59:59.215Z,99754.44
2023-01-08T21:02:27.994Z,99750.53
2023-01-08T21:04:55.982Z,99753.41
2023-01-08T21:07:29.504Z,99749.69
2023-01-08T21:09:57.511Z,99741.75
2023-01-08T21:12:25.460Z,99738.00
2023-01-08T21:14:53.522Z,99740.56
2023-01-08T21:17:21.543Z,99739.91
2023-01-08T21:19:49.469Z,99741.41
2023-01-08T21:22:17.500Z,99729.38
2023-01-08T21:24:46.871Z,99735.44
2023-01-08T21:27:14.917Z,99734.44
2023-01-08T21:29:42.832Z,99726.97
2023-01-08T21:32:10.903Z,99729.50
2023-01-08T21:34:38.896Z,99725.78
2023-01-08T21:37:08.556Z,99730.00
2023-01-08T21:39:36.600Z,99731.84
2023-01-08T21:42:23.369Z,99730.44
2023-01-08T21:45:08.610Z,99719.81
2023-01-08T21:47:36.645Z,99720.66
2023-01-08T21:50:04.824Z,99726.94
2023-01-08T21:52:50.313Z,99720.66
2023-01-08T21:55:18.443Z,99716.75
2023-01-08T21:57:47.851Z,99714.91
2023-01-08T22:00:16.774Z,99715.34
2023-01-08T22:02:44.655Z,99712.50
2023-01-08T22:05:12.663Z,99703.16
2023-01-08T22:07:40.649Z,99703.81
2023-01-08T22:10:09.658Z,99697.56
2023-01-08T22:12:37.622Z,99693.00
2023-01-08T22:15:09.622Z,99692.44
2023-01-08T22:17:38.195Z,99691.59
2023-01-08T22:20:08.168Z,99692.44
2023-01-08T22:25:05.455Z,99696.66
2023-01-08T22:27:33.502Z,99691.25
2023-01-08T22:30:01.579Z,99698.34
2023-01-08T22:32:30.995Z,99695.66
2023-01-08T22:34:58.971Z,99700.41
2023-01-08T22:37:26.952Z,99703.75
2023-01-08T22:39:54.891Z,99694.63
2023-01-08T22:42:24.589Z,99691.94
2023-01-08T22:44:52.526Z,99696.66
2023-01-08T22:47:20.501Z,99689.38
2023-01-08T22:49:50.831Z,99694.78
2023-01-08T22:52:18.840Z,99688.53
2023-01-08T22:54:46.772Z,99692.94
2023-01-08T22:57:14.840Z,99690.22
2023-01-08T22:59:42.790Z,99691.94
2023-01-08T23:02:10.773Z,99692.75
2023-01-08T23:04:38.771Z,99677.34
2023-01-08T23:07:08.324Z,99683.63
2023-01-08T23:09:36.370Z,99678.41
2023-01-08T23:12:04.465Z,99682.75
2023-01-08T23:14:32.497Z,99673.81
2023-01-08T23:17:00.475Z,99674.19
2023-01-08T23:19:29.415Z,99655.19
2023-01-08T23:21:57.365Z,99671.84
2023-01-08T23:24:27.807Z,99669.16
2023-01-08T23:26:56.631Z,99670.34
2023-01-08T23:29:29.374Z,99669.50
2023-01-08T23:31:57.775Z,99667.66
2023-01-08T23:34:26.129Z,99669.50
2023-01-08T23:36:54.057Z,99670.72
2023-01-08T23:39:22.057Z,99666.97
2023-01-08T23:41:51.443Z,99661.19
2023-01-08T23:44:19.453Z,99666.59
2023-01-08T23:46:47.343Z,99662.03
2023-01-08T23:49:15.440Z,99654.78
2023-01-08T23:51:43.390Z,99664.19
2023-01-08T23:54:12.548Z,99651.50
2023-01-08T23:56:41.126Z,99651.16
2023-01-08T23:59:10.808Z,99647.59
